Alvada, Ohio
Current Conditions -  °F | °C
As of 8:53 PM on Saturday 25 Oct 2014 (Local Time) from KFDY Reporting Station
Clear Clear  
Wind Chill: 56°   Ceiling: Unl
Heat Index: 56°   Visibility: 7mi
Dew Point: 35°   Wind: 8mph
Humidity: 45%   Direction: 270°W
Pressure: 29.84"   Gusts: NA
Location:  41.05°N, 83.4°W
Report Text: KFDY 260053Z AUTO 27007KT 7SM CLR 13/02 A2984 RMK AO2 SLP102 T01330017
Loading
Personal Weather Stations






























Interactive Weather Map New forecast layout! Learn more

10-Day Weather Forecast

Advertisements
Track Severe Weather on mobile